Time;durP1;ratioP1;P1;durP2;ratioP2;P2;SDS_P1;SDS_P2;PMS_P1;PMS_P2;Temp;Humidity;BMP_temperature;BMP_pressure;BME280_temperature;BME280_humidity;BME280_pressure;Samples;Min_cycle;Max_cycle;Signal;HPM_P1;HPM_P2
2021/11/25 00:00:05;;;;;;;;;22.25;20.75;;;;;7.05;72.29;100958.44;5061013;28;45450;-59
2021/11/25 00:02:30;;;;;;;;;24.25;20.00;;;;;7.04;72.31;100954.13;5060373;28;46756;-59
2021/11/25 00:04:55;;;;;;;;;23.75;19.00;;;;;7.02;72.40;100964.50;5060702;28;45506;-59
2021/11/25 00:07:21;;;;;;;;;30.00;21.50;;;;;6.97;72.46;100955.91;5060706;28;45318;-59
2021/11/25 00:09:47;;;;;;;;;24.75;21.00;;;;;6.99;73.00;100962.75;5060652;28;45380;-59
2021/11/25 00:12:13;;;;;;;;;25.75;23.00;;;;;6.98;73.11;100967.94;5060304;28;45465;-59
2021/11/25 00:14:38;;;;;;;;;25.25;23.00;;;;;6.93;73.19;100960.25;5062271;28;45441;-59
2021/11/25 00:17:04;;;;;;;;;22.25;21.00;;;;;6.95;73.49;100958.50;5060968;28;45314;-59
2021/11/25 00:19:29;;;;;;;;;23.00;22.50;;;;;6.97;73.62;100969.69;5060563;28;45322;-59
2021/11/25 00:21:55;;;;;;;;;22.50;21.75;;;;;6.96;73.59;100960.22;5060331;28;46539;-59
2021/11/25 00:24:20;;;;;;;;;29.25;22.00;;;;;6.95;73.13;100963.66;5060340;28;45364;-59
2021/11/25 00:26:45;;;;;;;;;26.75;20.75;;;;;6.92;73.20;100953.38;5073301;28;45182;-59
2021/11/25 00:29:11;;;;;;;;;31.00;25.25;;;;;6.89;73.30;100950.81;5060322;28;45172;-59
2021/11/25 00:31:36;;;;;;;;;22.25;20.00;;;;;6.87;73.39;100949.97;5059868;28;46314;-58
2021/11/25 00:34:01;;;;;;;;;31.75;23.75;;;;;6.88;73.44;100941.34;5058059;28;45304;-59
2021/11/25 00:36:27;;;;;;;;;28.00;20.75;;;;;6.91;73.33;100940.47;5060182;28;45291;-58
2021/11/25 00:38:52;;;;;;;;;22.50;20.75;;;;;6.92;72.99;100939.59;5060229;28;45155;-59
2021/11/25 00:41:18;;;;;;;;;31.50;23.75;;;;;6.88;72.93;100933.59;5059870;28;46098;-59
2021/11/25 00:43:43;;;;;;;;;19.00;17.25;;;;;6.90;72.87;100937.03;5060225;28;45212;-58
2021/11/25 00:46:09;;;;;;;;;24.25;23.50;;;;;6.90;72.73;100934.44;5059922;28;45266;-58
2021/11/25 00:48:34;;;;;;;;;22.75;20.75;;;;;6.88;72.86;100935.34;5060095;28;45457;-58
2021/11/25 00:51:00;;;;;;;;;20.25;15.75;;;;;6.87;73.21;100923.28;5059852;28;47329;-58
2021/11/25 00:53:25;;;;;;;;;22.00;21.25;;;;;6.95;72.76;100936.97;5059891;28;45346;-58
2021/11/25 00:55:51;;;;;;;;;25.25;17.25;;;;;6.95;72.88;100931.81;5059759;28;45337;-59
2021/11/25 00:58:19;;;;;;;;;25.75;23.50;;;;;6.94;72.63;100932.69;5060058;28;45493;-60
2021/11/25 01:00:45;;;;;;;;;26.00;25.00;;;;;6.87;72.77;100918.97;5059540;28;46105;-59
2021/11/25 01:03:11;;;;;;;;;22.25;18.25;;;;;6.87;72.62;100921.56;5060154;28;45235;-59
2021/11/25 01:05:36;;;;;;;;;22.25;21.75;;;;;6.87;72.55;100928.47;5059790;28;45341;-59
2021/11/25 01:08:02;;;;;;;;;25.00;25.00;;;;;6.85;72.57;100936.22;5059971;28;45334;-59
2021/11/25 01:10:27;;;;;;;;;23.50;21.50;;;;;6.88;72.27;100941.34;5058979;28;45397;-60
2021/11/25 01:12:55;;;;;;;;;19.00;16.25;;;;;6.90;72.70;100933.59;5059938;28;45258;-60
2021/11/25 01:15:29;;;;;;;;;22.00;14.50;;;;;6.87;71.83;100937.06;5061616;28;45517;-60
2021/11/25 01:18:01;;;;;;;;;23.50;19.00;;;;;6.85;71.49;100946.56;5059702;28;45436;-60
2021/11/25 01:20:28;;;;;;;;;22.75;20.25;;;;;6.82;71.94;100938.84;5059203;28;46182;-60
2021/11/25 01:22:55;;;;;;;;;22.50;16.50;;;;;6.82;71.43;100936.25;5059745;28;45803;-60
2021/11/25 01:25:21;;;;;;;;;19.00;15.75;;;;;6.80;71.80;100943.13;5059437;28;46358;-60
2021/11/25 01:27:46;;;;;;;;;19.00;18.25;;;;;6.80;71.39;100942.28;5059594;28;45276;-60
2021/11/25 01:30:12;;;;;;;;;18.00;18.00;;;;;6.79;71.61;100932.81;5059046;28;46984;-60
2021/11/25 01:32:38;;;;;;;;;22.75;17.00;;;;;6.84;71.48;100944.00;5058926;28;45324;-60
2021/11/25 01:35:05;;;;;;;;;14.25;11.00;;;;;6.85;72.20;100931.06;5058558;28;45374;-60
2021/11/25 01:37:30;;;;;;;;;21.50;17.75;;;;;6.84;70.54;100938.81;5058934;28;45213;-60
2021/11/25 01:39:56;;;;;;;;;17.50;17.25;;;;;6.83;70.82;100937.97;5058566;28;46504;-60
2021/11/25 01:42:22;;;;;;;;;7.50;7.25;;;;;6.84;70.41;100925.91;5058964;28;45219;-60
2021/11/25 01:44:47;;;;;;;;;26.25;18.25;;;;;6.85;71.03;100936.22;5060347;28;45469;-60
2021/11/25 01:47:13;;;;;;;;;23.50;21.75;;;;;6.86;71.26;100934.50;5062452;28;45204;-60
2021/11/25 01:49:38;;;;;;;;;13.50;9.75;;;;;6.86;70.72;100937.94;5061640;28;46264;-61
2021/11/25 01:52:03;;;;;;;;;21.50;13.75;;;;;6.89;70.84;100937.03;5062536;28;45233;-60
2021/11/25 01:54:29;;;;;;;;;19.25;19.25;;;;;6.91;71.06;100933.56;5061583;28;45506;-60
2021/11/25 01:56:56;;;;;;;;;21.75;17.50;;;;;6.92;70.79;100932.69;5062073;28;45440;-60
2021/11/25 01:59:22;;;;;;;;;26.50;20.50;;;;;6.92;70.89;100930.13;5061580;28;46789;-61
2021/11/25 02:01:47;;;;;;;;;20.00;16.00;;;;;6.95;69.42;100931.81;5062098;28;45385;-61
2021/11/25 02:04:13;;;;;;;;;23.25;21.25;;;;;6.97;69.29;100936.09;5061796;28;45318;-60
2021/11/25 02:06:40;;;;;;;;;31.00;20.75;;;;;7.00;70.09;100940.38;5062073;28;45333;-59
2021/11/25 02:09:06;;;;;;;;;24.00;20.75;;;;;7.00;69.09;100930.88;5061938;28;45401;-60
2021/11/25 02:11:32;;;;;;;;;23.25;19.00;;;;;7.01;69.71;100935.22;5061171;28;45226;-60
2021/11/25 02:13:57;;;;;;;;;27.50;22.00;;;;;7.04;69.35;100936.06;5062623;28;45314;-60
2021/11/25 02:16:23;;;;;;;;;26.00;21.75;;;;;7.04;69.79;100929.16;5064270;28;45432;-60
2021/11/25 02:18:48;;;;;;;;;25.00;22.50;;;;;7.05;69.99;100922.25;5060953;28;46247;-60
2021/11/25 02:21:15;;;;;;;;;14.50;13.25;;;;;7.05;69.54;100932.59;5062337;28;45351;-61
2021/11/25 02:23:41;;;;;;;;;27.75;20.75;;;;;7.06;70.00;100919.66;5062410;28;45365;-60
2021/11/25 02:26:06;;;;;;;;;21.25;20.00;;;;;7.07;69.97;100925.69;5062056;28;45392;-60
2021/11/25 02:28:36;;;;;;;;;23.25;15.00;;;;;7.09;69.83;100923.94;5062005;28;45947;-60
2021/11/25 02:31:02;;;;;;;;;23.00;18.00;;;;;7.10;69.89;100923.91;5054956;28;45266;-61
2021/11/25 02:33:28;;;;;;;;;18.50;17.50;;;;;7.09;69.25;100914.44;5062234;28;45238;-60
2021/11/25 02:35:54;;;;;;;;;21.25;18.00;;;;;7.10;69.65;100912.72;5062237;28;45298;-60
2021/11/25 02:38:19;;;;;;;;;23.25;17.75;;;;;7.11;69.58;100909.25;5061857;28;46449;-60
2021/11/25 02:40:51;;;;;;;;;13.25;8.50;;;;;7.09;69.22;100919.63;5061903;28;45507;-60
2021/11/25 02:43:20;;;;;;;;;20.50;15.00;;;;;7.05;69.87;100917.09;5062229;28;45306;-60
2021/11/25 02:45:48;;;;;;;;;22.00;16.50;;;;;7.03;70.09;100917.09;5061706;28;45594;-60
2021/11/25 02:48:15;;;;;;;;;18.25;17.25;;;;;7.01;70.47;100916.28;5062203;28;45306;-60
2021/11/25 02:50:41;;;;;;;;;21.25;15.75;;;;;6.97;70.50;100905.09;5061753;28;45283;-60
2021/11/25 02:53:08;;;;;;;;;20.75;15.50;;;;;6.97;70.78;100904.22;5060749;28;45560;-60
2021/11/25 02:55:33;;;;;;;;;21.25;17.50;;;;;6.97;70.79;100905.09;5060657;28;45237;-60
2021/11/25 02:57:59;;;;;;;;;23.25;18.25;;;;;7.00;70.99;100912.81;5061691;28;45999;-60
2021/11/25 03:00:24;;;;;;;;;19.25;13.75;;;;;7.00;71.23;100910.22;5061648;28;45235;-61
2021/11/25 03:03:06;;;;;;;;;22.00;18.00;;;;;6.99;71.28;100908.50;5062028;28;45513;-62
2021/11/25 03:05:32;;;;;;;;;21.75;17.50;;;;;7.03;71.17;100911.94;5061590;28;45408;-61
2021/11/25 03:08:05;;;;;;;;;12.75;12.75;;;;;7.03;71.08;100908.50;5061672;28;45712;-61
2021/11/25 03:10:46;;;;;;;;;23.25;17.50;;;;;7.03;71.43;100905.91;5061381;28;45828;-61
2021/11/25 03:13:14;;;;;;;;;22.00;14.75;;;;;6.97;71.18;100909.41;5061596;28;45337;-61
2021/11/25 03:15:40;;;;;;;;;21.25;19.25;;;;;6.91;71.32;100896.56;5063852;28;45445;-61
2021/11/25 03:18:08;;;;;;;;;24.75;20.50;;;;;6.92;71.34;100898.25;5061372;28;45604;-61
2021/11/25 03:20:36;;;;;;;;;25.00;21.50;;;;;6.92;71.46;100900.84;5061152;28;45235;-62
2021/11/25 03:23:02;;;;;;;;;34.25;26.25;;;;;6.92;71.59;100901.69;5061522;28;45415;-61
2021/11/25 03:25:27;;;;;;;;;19.00;15.00;;;;;6.95;71.68;100900.81;5061221;28;45306;-60
2021/11/25 03:27:53;;;;;;;;;18.50;15.00;;;;;6.92;71.69;100895.69;5061142;28;46192;-61
2021/11/25 03:30:18;;;;;;;;;28.50;18.50;;;;;6.93;71.93;100889.63;5060879;28;45439;-60
2021/11/25 03:32:44;;;;;;;;;31.00;25.75;;;;;6.92;72.18;100882.75;5060073;28;45462;-60
2021/11/25 03:35:09;;;;;;;;;25.75;23.50;;;;;6.89;72.54;100890.53;5061320;28;45303;-60
2021/11/25 03:37:36;;;;;;;;;25.50;25.25;;;;;6.87;73.31;100898.31;5060846;28;46192;-60
2021/11/25 03:40:04;;;;;;;;;34.00;23.25;;;;;6.84;74.02;100892.31;5061270;28;45227;-60
2021/11/25 03:42:30;;;;;;;;;30.50;25.00;;;;;6.82;73.46;100894.94;5060947;28;45224;-60
2021/11/25 03:44:55;;;;;;;;;41.00;32.50;;;;;6.77;74.33;100893.22;5061052;28;45258;-59
2021/11/25 03:47:21;;;;;;;;;36.00;30.50;;;;;6.75;74.32;100884.66;5060271;28;45576;-59
2021/11/25 03:49:46;;;;;;;;;34.75;28.25;;;;;6.74;75.97;100882.94;5061077;28;45327;-60
2021/11/25 03:52:12;;;;;;;;;35.00;25.75;;;;;6.74;75.22;100886.38;5061141;28;45374;-60
2021/11/25 03:54:37;;;;;;;;;26.50;24.25;;;;;6.70;75.34;100877.81;5060646;28;45433;-59
2021/11/25 03:57:03;;;;;;;;;37.50;30.25;;;;;6.63;76.18;100883.91;5073498;28;46114;-60
2021/11/25 03:59:28;;;;;;;;;32.25;25.75;;;;;6.53;76.42;100876.25;5061041;28;45476;-59
2021/11/25 04:01:53;;;;;;;;;41.50;26.25;;;;;6.46;76.57;100869.44;5052944;28;45362;-59
2021/11/25 04:04:19;;;;;;;;;36.25;33.00;;;;;6.39;77.37;100884.94;5060807;28;45496;-60
2021/11/25 04:06:44;;;;;;;;;32.50;31.50;;;;;6.31;77.83;100886.75;5059785;28;45281;-60
2021/11/25 04:09:11;;;;;;;;;38.50;30.75;;;;;6.28;76.62;100880.75;5060657;28;45350;-59
2021/11/25 04:11:36;;;;;;;;;36.00;32.75;;;;;6.21;77.78;100885.13;5060536;28;45294;-59
2021/11/25 04:14:03;;;;;;;;;40.75;33.25;;;;;6.12;77.34;100877.44;5061084;28;45207;-59
2021/11/25 04:16:30;;;;;;;;;45.75;33.50;;;;;6.06;79.72;100887.78;5061932;28;46323;-59
2021/11/25 04:18:56;;;;;;;;;47.75;35.75;;;;;5.99;78.59;100880.94;5060346;28;45872;-59
2021/11/25 04:21:21;;;;;;;;;40.25;33.00;;;;;5.92;79.94;100885.28;5060662;28;45307;-58
2021/11/25 04:23:47;;;;;;;;;57.00;43.00;;;;;5.85;79.53;100880.16;5060329;28;45359;-59
2021/11/25 04:26:12;;;;;;;;;43.75;37.00;;;;;5.80;78.85;100877.59;5060054;28;45378;-59
2021/11/25 04:28:37;;;;;;;;;48.00;36.33;;;;;5.75;79.84;100890.50;5059937;28;45318;-59
2021/11/25 04:36:32;;;;;;;;;53.25;38.25;;;;;5.66;80.96;100888.00;5060081;28;45495;-60
2021/11/25 04:38:58;;;;;;;;;56.50;39.50;;;;;5.62;81.76;100888.88;5059349;28;45319;-60
2021/11/25 04:41:23;;;;;;;;;49.25;36.50;;;;;5.57;81.41;100892.31;5057847;28;45468;-60
2021/11/25 04:43:49;;;;;;;;;67.75;44.00;;;;;5.57;80.41;100897.47;5060198;28;45485;-60
2021/11/25 04:46:14;;;;;;;;;56.00;40.75;;;;;5.52;81.44;100891.50;5059223;28;46186;-60
2021/11/25 04:48:40;;;;;;;;;39.25;38.50;;;;;5.48;80.59;100893.22;5059800;28;45377;-59
2021/11/25 04:51:05;;;;;;;;;51.00;40.25;;;;;5.42;81.09;100893.25;5060094;28;45301;-60
2021/11/25 04:53:30;;;;;;;;;57.50;42.00;;;;;5.39;84.61;100895.81;5059959;28;45420;-60
2021/11/25 04:55:56;;;;;;;;;59.25;44.50;;;;;5.34;81.02;100897.56;5059453;28;45307;-61
2021/11/25 04:58:21;;;;;;;;;56.25;42.25;;;;;5.32;81.91;100896.72;5059844;28;45254;-60
2021/11/25 05:00:47;;;;;;;;;50.75;37.50;;;;;5.29;82.02;100891.59;5059587;28;45258;-59
2021/11/25 05:03:12;;;;;;;;;56.25;42.75;;;;;5.24;84.00;100895.91;5060017;28;45295;-59
2021/11/25 05:05:38;;;;;;;;;58.75;43.00;;;;;5.18;82.87;100897.63;5059006;28;45292;-59
2021/11/25 05:08:04;;;;;;;;;64.50;40.50;;;;;5.18;82.38;100900.19;5059255;28;45798;-60
2021/11/25 05:10:30;;;;;;;;;60.75;47.25;;;;;5.13;82.26;100899.34;5059153;28;45427;-59
2021/11/25 05:12:56;;;;;;;;;54.25;42.50;;;;;5.14;83.02;100895.91;5059649;28;45512;-59
2021/11/25 05:15:22;;;;;;;;;54.25;41.00;;;;;5.13;83.34;100898.50;5061821;28;45389;-59
2021/11/25 05:17:48;;;;;;;;;60.25;43.25;;;;;5.09;82.62;100887.34;5059696;28;45271;-58
2021/11/25 05:20:15;;;;;;;;;42.75;28.75;;;;;5.09;83.29;100891.66;5058789;28;45437;-58
2021/11/25 05:22:41;;;;;;;;;59.00;43.00;;;;;5.08;83.43;100895.09;5059583;28;45508;-58
2021/11/25 05:25:08;;;;;;;;;64.75;43.25;;;;;5.06;82.96;100891.66;5059154;28;45419;-58
2021/11/25 05:27:34;;;;;;;;;60.25;48.00;;;;;5.04;82.22;100885.66;5059150;28;45702;-59
2021/11/25 05:29:59;;;;;;;;;56.75;40.00;;;;;5.00;82.69;100882.22;5058848;28;45236;-58
2021/11/25 05:32:25;;;;;;;;;59.00;44.25;;;;;4.96;83.08;100885.66;5058732;28;45452;-58
2021/11/25 05:34:50;;;;;;;;;63.75;47.00;;;;;4.93;84.37;100892.53;5057908;28;46359;-58
2021/11/25 05:37:17;;;;;;;;;50.67;36.33;;;;;4.86;83.92;100883.97;5058522;28;45501;-58
2021/11/25 05:39:43;;;;;;;;;58.25;44.25;;;;;4.83;84.08;100894.28;5058422;28;45380;-58
2021/11/25 05:42:09;;;;;;;;;57.00;43.25;;;;;4.78;83.81;100886.53;5058774;28;45377;-58
2021/11/25 05:44:35;;;;;;;;;56.00;42.00;;;;;4.78;83.89;100894.25;5056561;28;48374;-58
2021/11/25 05:47:01;;;;;;;;;59.50;44.75;;;;;4.75;83.31;100885.69;5058375;28;45201;-59
2021/11/25 05:49:26;;;;;;;;;50.75;42.75;;;;;4.74;83.99;100892.56;5057895;28;45235;-59
2021/11/25 05:51:52;;;;;;;;;54.50;45.25;;;;;4.68;83.71;100895.16;5058802;28;45538;-58
2021/11/25 05:54:17;;;;;;;;;61.75;41.50;;;;;4.64;86.38;100898.59;5057480;28;46284;-58
2021/11/25 05:56:43;;;;;;;;;52.50;41.50;;;;;4.61;84.40;100902.91;5058224;28;45372;-59
2021/11/25 05:59:08;;;;;;;;;49.50;44.00;;;;;4.62;84.65;100912.31;5056595;28;45298;-59
2021/11/25 06:01:34;;;;;;;;;51.25;36.00;;;;;4.59;83.95;100918.31;5058259;28;45630;-59
2021/11/25 06:03:59;;;;;;;;;60.00;43.75;;;;;4.55;84.19;100922.59;5058074;28;46673;-59
2021/11/25 06:06:25;;;;;;;;;55.75;40.50;;;;;4.52;84.85;100917.47;5058810;28;45157;-59
2021/11/25 06:08:50;;;;;;;;;55.25;44.00;;;;;4.51;84.22;100925.19;5058619;28;45414;-59
2021/11/25 06:11:16;;;;;;;;;57.75;41.50;;;;;4.50;84.21;100918.31;5058425;28;46069;-59
2021/11/25 06:13:43;;;;;;;;;66.75;45.00;;;;;4.49;84.03;100919.19;5058335;28;46253;-58
2021/11/25 06:16:08;;;;;;;;;54.00;42.50;;;;;4.46;85.61;100922.63;5059566;28;45312;-57
2021/11/25 06:18:34;;;;;;;;;48.75;38.00;;;;;4.41;85.51;100921.75;5058773;28;45410;-58
2021/11/25 06:20:59;;;;;;;;;59.75;44.00;;;;;4.39;85.21;100920.03;5057826;28;45256;-61
2021/11/25 06:23:25;;;;;;;;;44.50;33.75;;;;;4.40;84.71;100920.00;5058323;28;46646;-60
2021/11/25 06:25:50;;;;;;;;;55.25;45.25;;;;;4.38;84.99;100926.03;5058153;28;45645;-60
2021/11/25 06:28:16;;;;;;;;;61.00;46.75;;;;;4.38;84.72;100914.00;5057416;28;45326;-62
2021/11/25 06:30:42;;;;;;;;;58.50;44.50;;;;;4.38;85.31;100913.16;5056581;28;45289;-62
2021/11/25 06:33:08;;;;;;;;;64.00;41.50;;;;;4.38;84.90;100924.31;5061444;28;46429;-61
2021/11/25 06:35:34;;;;;;;;;66.00;44.00;;;;;4.37;85.89;100920.03;5061870;28;45241;-60
2021/11/25 06:37:59;;;;;;;;;68.00;49.50;;;;;4.36;84.04;100922.59;5055141;28;45405;-60
2021/11/25 06:40:27;;;;;;;;;47.75;41.50;;;;;4.35;84.36;100913.16;5052651;28;45598;-61
2021/11/25 06:42:55;;;;;;;;;68.25;49.25;;;;;4.35;83.95;100921.75;5053985;28;46383;-60
2021/11/25 06:45:21;;;;;;;;;68.25;46.00;;;;;4.35;85.31;100920.88;5047523;28;45362;-60
2021/11/25 06:47:47;;;;;;;;;64.75;44.75;;;;;4.35;85.76;100910.59;5058662;28;45269;-61
2021/11/25 06:50:13;;;;;;;;;64.25;45.00;;;;;4.32;85.60;100915.75;5061313;28;45260;-60
2021/11/25 06:52:39;;;;;;;;;59.75;46.75;;;;;4.31;85.01;100911.44;5061083;28;45369;-61
2021/11/25 06:55:07;;;;;;;;;46.50;32.75;;;;;4.28;85.54;100918.31;5060810;28;45467;-61
2021/11/25 06:57:32;;;;;;;;;70.50;49.00;;;;;4.32;84.62;100928.59;5060843;28;45317;-62
2021/11/25 06:59:58;;;;;;;;;63.75;45.50;;;;;4.32;85.44;100921.75;5061119;27;45304;-64
2021/11/25 07:02:23;;;;;;;;;56.50;38.75;;;;;4.32;85.16;100926.88;5060477;28;45372;-64
2021/11/25 07:04:49;;;;;;;;;57.00;38.75;;;;;4.31;84.93;100927.75;5060721;28;45301;-60
2021/11/25 07:07:15;;;;;;;;;74.00;47.75;;;;;4.29;85.17;100937.19;5060576;28;45262;-61
2021/11/25 07:09:41;;;;;;;;;63.50;44.00;;;;;4.27;85.43;100944.03;5060858;28;45437;-60
2021/11/25 07:12:06;;;;;;;;;67.75;46.50;;;;;4.26;84.88;100957.75;5060641;28;45254;-61
2021/11/25 07:14:32;;;;;;;;;63.50;45.50;;;;;4.24;84.72;100955.19;5061452;28;45299;-61
2021/11/25 07:16:57;;;;;;;;;65.25;48.00;;;;;4.27;85.29;100968.03;5062197;28;45177;-61
2021/11/25 07:19:23;;;;;;;;;61.75;47.50;;;;;4.23;84.51;100980.91;5060735;28;45200;-63
2021/11/25 07:21:48;;;;;;;;;61.50;46.25;;;;;4.22;85.32;100979.19;5060532;28;46238;-62
2021/11/25 07:24:14;;;;;;;;;61.75;45.50;;;;;4.19;84.75;100981.72;5060533;28;45223;-61
2021/11/25 07:26:39;;;;;;;;;63.25;44.25;;;;;4.17;84.77;100984.31;5054091;28;45478;-63
2021/11/25 07:29:04;;;;;;;;;67.25;46.75;;;;;4.17;85.40;100966.28;5060544;28;45184;-61
2021/11/25 07:31:33;;;;;;;;;65.00;46.00;;;;;4.22;85.09;100982.63;5060079;28;46199;-60
2021/11/25 07:33:59;;;;;;;;;69.50;52.00;;;;;4.28;85.96;100979.19;5060446;28;45411;-61
2021/11/25 07:36:24;;;;;;;;;59.50;43.00;;;;;4.28;85.51;100992.06;5054061;28;45390;-61
2021/11/25 07:38:50;;;;;;;;;64.25;45.75;;;;;4.30;85.37;100990.34;5052298;28;45291;-61
2021/11/25 07:41:16;;;;;;;;;56.75;48.50;;;;;4.33;85.08;100990.34;5049674;28;45933;-62
2021/11/25 07:43:42;;;;;;;;;55.75;40.50;;;;;4.38;84.88;100998.91;5053692;28;45445;-61
2021/11/25 07:46:07;;;;;;;;;63.75;45.50;;;;;4.37;85.38;100996.34;5060039;28;45437;-67
2021/11/25 07:48:32;;;;;;;;;59.75;45.50;;;;;4.38;84.58;100993.78;5059126;28;45244;-65
2021/11/25 07:50:59;;;;;;;;;63.75;49.00;;;;;4.38;84.82;101000.63;5060164;28;45242;-67
2021/11/25 07:53:24;;;;;;;;;70.00;52.75;;;;;4.41;85.41;101005.81;5060285;28;45663;-60
2021/11/25 07:55:49;;;;;;;;;67.00;52.50;;;;;4.45;84.67;101016.13;5059725;28;45425;-60
2021/11/25 07:58:15;;;;;;;;;68.50;49.00;;;;;4.48;85.09;101015.25;5059580;28;45270;-60
2021/11/25 08:00:40;;;;;;;;;59.75;46.00;;;;;4.49;85.35;101010.09;5059337;28;45337;-60
2021/11/25 08:03:06;;;;;;;;;66.25;41.50;;;;;4.52;84.16;101007.53;5060078;28;45349;-60
2021/11/25 08:05:31;;;;;;;;;63.75;48.50;;;;;4.58;84.66;101014.41;5060131;28;45263;-60
2021/11/25 08:07:58;;;;;;;;;64.00;44.25;;;;;4.59;84.96;101018.69;5058784;28;45364;-60
2021/11/25 08:10:25;;;;;;;;;66.00;46.25;;;;;4.66;84.58;101030.72;5059447;28;46623;-60
2021/11/25 08:12:54;;;;;;;;;67.00;49.25;;;;;4.71;83.93;101031.59;5059825;28;45673;-60
2021/11/25 08:15:20;;;;;;;;;68.50;52.00;;;;;4.78;84.17;101035.88;5062148;28;45252;-60
2021/11/25 08:17:45;;;;;;;;;73.00;49.25;;;;;4.81;83.64;101035.03;5059783;28;45250;-60
2021/11/25 08:20:11;;;;;;;;;66.50;49.00;;;;;4.86;83.97;101043.63;5059747;28;45520;-60
2021/11/25 08:22:38;;;;;;;;;75.00;54.00;;;;;4.88;84.07;101053.06;5056665;28;45674;-60
2021/11/25 08:25:06;;;;;;;;;67.75;48.50;;;;;4.90;83.71;101050.47;5059685;28;45514;-60
2021/11/25 08:27:31;;;;;;;;;75.50;45.50;;;;;4.99;83.97;101047.91;5056536;28;45234;-61
2021/11/25 08:29:57;;;;;;;;;73.25;55.50;;;;;5.02;83.45;101050.50;5059531;28;45432;-61
2021/11/25 08:32:23;;;;;;;;;66.00;49.25;;;;;5.08;83.77;101060.78;5058829;28;45384;-62
2021/11/25 08:34:48;;;;;;;;;73.50;51.25;;;;;5.12;83.30;101057.34;5058541;28;45239;-61
2021/11/25 08:37:14;;;;;;;;;59.50;47.25;;;;;5.16;83.19;101065.94;5058286;28;45517;-61
2021/11/25 08:39:39;;;;;;;;;71.25;52.75;;;;;5.21;82.70;101056.50;5058851;28;46287;-61
2021/11/25 08:42:06;;;;;;;;;72.50;54.50;;;;;5.24;83.15;101053.06;5059436;28;45243;-61
2021/11/25 08:44:32;;;;;;;;;70.00;52.75;;;;;5.35;82.62;101053.91;5059404;28;45248;-60
2021/11/25 08:46:58;;;;;;;;;68.50;51.75;;;;;5.49;82.72;101053.03;5059188;28;45448;-60
2021/11/25 08:49:24;;;;;;;;;82.00;57.75;;;;;5.67;82.13;101059.88;5059237;28;46439;-60
2021/11/25 08:51:49;;;;;;;;;74.25;53.25;;;;;5.81;81.89;101049.53;5059471;28;45363;-60
2021/11/25 08:54:15;;;;;;;;;72.00;57.00;;;;;5.93;81.20;101048.66;5058002;28;45361;-60
2021/11/25 08:56:40;;;;;;;;;78.00;53.00;;;;;6.03;81.11;101051.22;5059309;28;45462;-60
2021/11/25 08:59:06;;;;;;;;;71.75;53.50;;;;;6.14;80.69;101064.03;5059239;28;46618;-60
2021/11/25 09:01:31;;;;;;;;;72.00;50.25;;;;;6.20;79.90;101061.44;5059361;28;45245;-60
2021/11/25 09:03:57;;;;;;;;;66.00;48.50;;;;;6.26;80.27;101058.00;5059375;28;45357;-61
2021/11/25 09:06:22;;;;;;;;;68.75;50.00;;;;;6.31;79.18;101045.91;5059429;28;45410;-63
2021/11/25 09:08:47;;;;;;;;;65.50;47.50;;;;;6.30;78.86;101042.47;5058841;28;45381;-59
2021/11/25 09:11:15;;;;;;;;;69.75;53.25;;;;;6.32;79.62;101045.91;5059209;28;45199;-58
2021/11/25 09:13:41;;;;;;;;;74.00;51.00;;;;;6.31;78.89;101039.03;5058546;28;45613;-58
2021/11/25 09:16:06;;;;;;;;;64.25;50.75;;;;;6.36;79.29;101045.00;5061268;28;45425;-58
2021/11/25 09:18:32;;;;;;;;;68.00;47.00;;;;;6.42;78.47;101040.69;5058392;28;46389;-58
2021/11/25 09:20:57;;;;;;;;;65.00;48.00;;;;;6.46;79.03;101040.66;5058710;28;45322;-58
2021/11/25 09:23:23;;;;;;;;;66.75;53.50;;;;;6.48;78.37;101040.66;5058847;28;45770;-58
2021/11/25 09:25:50;;;;;;;;;67.25;50.50;;;;;6.50;78.40;101041.50;5058907;28;45414;-58
2021/11/25 09:28:22;;;;;;;;;73.25;51.75;;;;;6.47;77.83;101041.53;5058664;28;46714;-58
2021/11/25 09:30:49;;;;;;;;;75.25;53.75;;;;;6.45;78.37;101026.06;5058491;28;45323;-58
2021/11/25 09:33:15;;;;;;;;;72.00;54.50;;;;;6.60;79.20;101037.97;5058794;28;45239;-58
2021/11/25 09:35:41;;;;;;;;;68.00;51.50;;;;;6.71;77.90;101036.19;5059152;28;45411;-58
2021/11/25 09:38:08;;;;;;;;;64.75;52.00;;;;;6.78;77.76;101042.16;5058468;28;46305;-59
2021/11/25 09:40:34;;;;;;;;;70.50;52.25;;;;;6.79;77.84;101031.81;5058936;28;45239;-58
2021/11/25 09:43:04;;;;;;;;;71.25;51.50;;;;;6.86;76.63;101030.06;5058932;28;45251;-58
2021/11/25 09:45:32;;;;;;;;;67.00;51.50;;;;;6.89;77.26;101030.91;5059059;28;45342;-58
2021/11/25 09:48:08;;;;;;;;;80.25;55.75;;;;;6.98;77.21;101035.97;5058656;28;45869;-58
2021/11/25 09:50:36;;;;;;;;;74.75;54.25;;;;;7.05;77.36;101034.22;5058624;28;45712;-58
2021/11/25 09:53:05;;;;;;;;;66.50;49.75;;;;;7.11;76.91;101035.91;5058908;28;45433;-58
2021/11/25 09:55:31;;;;;;;;;68.75;50.75;;;;;7.36;76.61;101034.78;5058542;28;45315;-58
2021/11/25 09:57:58;;;;;;;;;66.75;51.00;;;;;7.75;76.43;101037.84;5058678;28;46340;-58
2021/11/25 10:00:27;;;;;;;;;73.25;52.50;;;;;7.91;76.28;101042.84;5058483;28;45181;-59
2021/11/25 10:02:53;;;;;;;;;71.00;50.75;;;;;7.97;76.19;101036.72;5058909;28;45397;-59
2021/11/25 10:05:18;;;;;;;;;76.00;54.00;;;;;8.07;75.24;101037.47;5059894;28;45430;-59
2021/11/25 10:07:45;;;;;;;;;74.50;55.25;;;;;8.22;75.06;101040.75;5062229;28;45361;-59
2021/11/25 10:10:27;;;;;;;;;80.25;54.75;;;;;8.68;74.47;101039.28;5061871;28;45330;-58
2021/11/25 10:13:14;;;;;;;;;72.75;55.00;;;;;8.98;73.83;101049.16;5061942;28;45263;-58
2021/11/25 10:15:41;;;;;;;;;75.75;55.00;;;;;9.10;71.88;101036.00;5063328;28;45419;-59
2021/11/25 10:18:11;;;;;;;;;76.25;56.25;;;;;9.07;72.28;101040.38;5061609;28;46216;-59
2021/11/25 10:20:40;;;;;;;;;74.25;51.75;;;;;9.20;72.41;101046.19;5076335;28;45375;-59
2021/11/25 10:23:06;;;;;;;;;71.00;51.00;;;;;9.38;72.23;101044.16;5061942;28;45311;-59
2021/11/25 10:25:50;;;;;;;;;73.50;54.00;;;;;9.31;70.96;101034.78;5061595;28;45405;-59
2021/11/25 10:28:29;;;;;;;;;72.50;53.75;;;;;9.14;72.12;101032.47;5061357;28;46803;-59
2021/11/25 10:31:02;;;;;;;;;77.25;57.50;;;;;8.95;71.47;101043.16;5061206;28;45782;-59
2021/11/25 10:33:32;;;;;;;;;78.50;56.00;;;;;8.75;70.10;101033.97;5061595;28;45150;-59
2021/11/25 10:38:59;;;;;;;;;74.75;55.75;;;;;8.49;73.03;101036.09;5061568;28;45423;-57
2021/11/25 10:41:27;;;;;;;;;80.00;54.25;;;;;8.49;72.53;101030.91;5061423;28;45385;-58
2021/11/25 10:44:12;;;;;;;;;72.25;54.50;;;;;8.45;71.39;101024.91;5061831;28;45297;-57
2021/11/25 10:46:51;;;;;;;;;71.25;52.50;;;;;8.37;72.45;101015.53;5048942;28;45244;-58
2021/11/25 10:49:18;;;;;;;;;80.25;59.50;;;;;8.34;73.58;101025.94;5060767;28;45368;-58
2021/11/25 10:51:46;;;;;;;;;71.00;54.50;;;;;8.29;72.22;101020.78;5061530;28;45225;-58
2021/11/25 10:54:11;;;;;;;;;75.00;55.50;;;;;8.21;72.40;101020.91;5061039;28;45493;-58
2021/11/25 10:56:44;;;;;;;;;62.00;48.50;;;;;8.15;72.06;101008.03;5060924;28;45562;-58
2021/11/25 10:59:13;;;;;;;;;71.75;55.50;;;;;8.07;71.26;100999.50;5060960;28;46271;-59
2021/11/25 11:01:43;;;;;;;;;66.00;49.50;;;;;8.00;71.92;101005.63;5060114;28;45342;-59
2021/11/25 11:04:10;;;;;;;;;75.25;53.00;;;;;7.99;72.58;101003.91;5060309;28;45427;-59
2021/11/25 11:06:38;;;;;;;;;73.75;53.00;;;;;8.04;73.32;101001.28;5060277;28;45618;-59
2021/11/25 11:09:06;;;;;;;;;71.50;53.50;;;;;8.09;73.27;100994.31;5060208;28;45620;-59
2021/11/25 11:11:35;;;;;;;;;69.25;53.25;;;;;8.15;72.76;101005.44;5060950;27;45268;-59
2021/11/25 11:17:15;;;;;;;;;69.25;53.00;;;;;8.04;72.42;101009.91;5061736;28;45485;-58
2021/11/25 11:19:28;;;;;;;;;71.50;51.75;;;;;7.96;72.86;101008.28;5060107;27;46318;-58
2021/11/25 11:21:55;;;;;;;;;67.00;48.75;;;;;7.94;72.84;101009.16;5060368;28;45409;-59
2021/11/25 11:24:24;;;;;;;;;74.25;53.50;;;;;7.89;72.62;101003.19;5060336;28;45297;-59